Ana Sayfa
METAR-TAF:

METAR-TAF

Havaalanları :

Şam Havalimanı

Şam, Suriye

Enlem: 33-25N, Boylam: 036-31E, yükseklik: 608 m

Güncel hava durumu gözlemi

Rapor saat 17:00 UTC de 55 dakika önce yapıldı.
Rüzgar güney/güneybatıdan 20 kt
Sıcaklık 26°C
Nem 48%
Basınç 1006 hPa
Görüş mesafesi 10 km veya daha fazla
1500 m altında bulut yok ve kümülonimbus yok

METAR: OSDI 181700Z 20020KT CAVOK 26/14 Q1006

Saat: 20:55 (17:55 UTC)

Tahmin

Rapor saat 15:30 UTC de 2 saat ve 25 dakika önce yapıldı.
Ayın 18'si saat 18 UTC'den ayın 19'si saat 24 UTC'ye kadar geçerli Tahmin
Rüzgar güneybatıdan 110 kt
Görüş mesafesi 10 km veya daha fazla
1500 m altında bulut yok ve kümülonimbus yok
Geçici
ayın 19'si saat 12 UTC'den ayın 19'si saat 18 UTC'ye kadar
Rüzgar batı/güneybatıdan 15 kt ve 25 kt'a kadar ani rüzgarlar
Görüş mesafesi 10 km veya daha fazla
3000 ft yükseklikte az bulutlu

TAF: OSDI 181530Z 1818/1924 220110KT CAVOK TEMPO 1912/1918 24015G25KT 9999 FEW030

4.000'den fazla havaalanı için hava durumu gözlemleri ve tahminleri (METAR ve TAF raporları).

Kullanılabilir istasyonlar harita üzerinde sarı ve kırmızı noktalarla gösterilir.

İstasyonun adını görmek için fareyi noktanın üzerinde gezdirin.

Sonrasında hava gözlem ve tahminlerini görmek için tıklayın.

Haritayı değiştirmek için: yaklaştırmak için siyah artı işaretli yeşil düğmeye ve uzaklaştırmak için de eksi işaretli düğmeye hızla tıklayın; bitişik haritalar için yeşil okları kullanın.


METAR-TAF: